sensor_id;sensor_type;location;lat;lon;timestamp;P1;durP1;ratioP1;P2;durP2;ratioP2
76123;SDS011;64866;48.066;20.976;2022-11-02T09:57:31;13.07;;;4.27;;
76123;SDS011;64866;48.066;20.976;2022-11-02T10:00:34;10.93;;;4.20;;
76123;SDS011;64866;48.066;20.976;2022-11-02T10:06:56;10.03;;;4.53;;
76123;SDS011;64866;48.066;20.976;2022-11-02T10:10:26;9.80;;;4.23;;
76123;SDS011;64866;48.066;20.976;2022-11-02T10:13:41;11.00;;;4.72;;
76123;SDS011;64866;48.066;20.976;2022-11-02T10:16:52;12.45;;;3.95;;
76123;SDS011;64866;48.066;20.976;2022-11-02T10:21:54;12.85;;;4.85;;
76123;SDS011;64866;48.066;20.976;2022-11-02T10:24:59;11.30;;;4.63;;
76123;SDS011;64866;48.066;20.976;2022-11-02T10:28:32;12.77;;;4.30;;
76123;SDS011;64866;48.066;20.976;2022-11-02T11:58:15;22.52;;;11.40;;
76123;SDS011;64866;48.066;20.976;2022-11-02T12:01:21;20.10;;;10.15;;
76123;SDS011;64866;48.066;20.976;2022-11-02T12:14:40;13.50;;;8.07;;
76123;SDS011;64866;48.066;20.976;2022-11-02T12:31:35;14.77;;;8.53;;
76123;SDS011;64866;48.066;20.976;2022-11-02T12:45:25;11.63;;;8.27;;
76123;SDS011;64866;48.066;20.976;2022-11-02T12:55:50;17.42;;;10.27;;
76123;SDS011;64866;48.066;20.976;2022-11-02T12:58:54;20.58;;;10.07;;
76123;SDS011;64866;48.066;20.976;2022-11-02T13:02:11;17.17;;;10.63;;
76123;SDS011;64866;48.066;20.976;2022-11-02T13:05:18;15.93;;;11.00;;
76123;SDS011;64866;48.066;20.976;2022-11-02T13:08:31;16.38;;;9.93;;
76123;SDS011;64866;48.066;20.976;2022-11-02T13:11:58;16.52;;;8.35;;
76123;SDS011;64866;48.066;20.976;2022-11-02T13:15:04;17.40;;;9.90;;
76123;SDS011;64866;48.066;20.976;2022-11-02T13:18:23;16.88;;;9.30;;
76123;SDS011;64866;48.066;20.976;2022-11-02T13:21:32;16.02;;;10.00;;
76123;SDS011;64866;48.066;20.976;2022-11-02T13:24:49;18.40;;;11.43;;
76123;SDS011;64866;48.066;20.976;2022-11-02T13:28:04;20.40;;;11.70;;
76123;SDS011;64866;48.066;20.976;2022-11-02T13:31:14;18.60;;;10.63;;
76123;SDS011;64866;48.066;20.976;2022-11-02T13:34:40;18.00;;;10.55;;
76123;SDS011;64866;48.066;20.976;2022-11-02T13:37:46;17.40;;;9.10;;
76123;SDS011;64866;48.066;20.976;2022-11-02T13:44:18;19.63;;;9.38;;
76123;SDS011;64866;48.066;20.976;2022-11-02T13:54:40;16.95;;;9.60;;
76123;SDS011;64866;48.066;20.976;2022-11-02T13:57:56;24.33;;;10.50;;
76123;SDS011;64866;48.066;20.976;2022-11-02T14:01:01;18.67;;;11.27;;
76123;SDS011;64866;48.066;20.976;2022-11-02T14:04:08;21.35;;;11.30;;
76123;SDS011;64866;48.066;20.976;2022-11-02T14:10:25;19.50;;;11.10;;
76123;SDS011;64866;48.066;20.976;2022-11-02T14:19:55;22.50;;;12.03;;
76123;SDS011;64866;48.066;20.976;2022-11-02T14:26:28;20.85;;;11.07;;
76123;SDS011;64866;48.066;20.976;2022-11-02T14:32:58;21.35;;;12.48;;
76123;SDS011;64866;48.066;20.976;2022-11-02T14:46:52;22.23;;;12.15;;
76123;SDS011;64866;48.066;20.976;2022-11-02T14:50:15;25.50;;;11.98;;
76123;SDS011;64866;48.066;20.976;2022-11-02T14:53:22;22.83;;;12.37;;
76123;SDS011;64866;48.066;20.976;2022-11-02T14:59:58;22.38;;;11.98;;
76123;SDS011;64866;48.066;20.976;2022-11-02T15:03:06;23.05;;;12.73;;
76123;SDS011;64866;48.066;20.976;2022-11-02T15:06:26;25.17;;;13.35;;
76123;SDS011;64866;48.066;20.976;2022-11-02T15:16:22;23.77;;;12.47;;
76123;SDS011;64866;48.066;20.976;2022-11-02T15:22:40;26.38;;;12.45;;
76123;SDS011;64866;48.066;20.976;2022-11-02T15:25:49;20.83;;;11.70;;
76123;SDS011;64866;48.066;20.976;2022-11-02T15:28:54;27.17;;;13.25;;
76123;SDS011;64866;48.066;20.976;2022-11-02T15:32:02;24.95;;;13.40;;
76123;SDS011;64866;48.066;20.976;2022-11-02T15:35:12;24.15;;;12.38;;
76123;SDS011;64866;48.066;20.976;2022-11-02T15:38:20;25.83;;;12.52;;
76123;SDS011;64866;48.066;20.976;2022-11-02T15:42:00;20.08;;;10.45;;
76123;SDS011;64866;48.066;20.976;2022-11-02T15:59:40;28.13;;;13.83;;
76123;SDS011;64866;48.066;20.976;2022-11-02T16:02:47;26.23;;;14.02;;
76123;SDS011;64866;48.066;20.976;2022-11-02T16:05:51;27.35;;;15.35;;
76123;SDS011;64866;48.066;20.976;2022-11-02T16:08:55;32.35;;;17.33;;
76123;SDS011;64866;48.066;20.976;2022-11-02T16:12:02;34.33;;;16.55;;
76123;SDS011;64866;48.066;20.976;2022-11-02T16:15:17;33.90;;;18.00;;
76123;SDS011;64866;48.066;20.976;2022-11-02T16:18:26;45.25;;;24.08;;
76123;SDS011;64866;48.066;20.976;2022-11-02T16:21:31;75.23;;;34.93;;
76123;SDS011;64866;48.066;20.976;2022-11-02T16:24:34;42.72;;;24.10;;
76123;SDS011;64866;48.066;20.976;2022-11-02T16:27:37;46.53;;;24.25;;
76123;SDS011;64866;48.066;20.976;2022-11-02T16:30:40;163.40;;;47.70;;
76123;SDS011;64866;48.066;20.976;2022-11-02T16:33:59;372.00;;;109.15;;
76123;SDS011;64866;48.066;20.976;2022-11-02T16:37:04;214.43;;;76.13;;
76123;SDS011;64866;48.066;20.976;2022-11-02T16:40:15;86.50;;;35.13;;
76123;SDS011;64866;48.066;20.976;2022-11-02T16:43:19;40.60;;;19.95;;
76123;SDS011;64866;48.066;20.976;2022-11-02T16:46:27;56.60;;;26.00;;
76123;SDS011;64866;48.066;20.976;2022-11-02T16:49:33;167.52;;;59.70;;
76123;SDS011;64866;48.066;20.976;2022-11-02T16:52:55;188.67;;;62.50;;
76123;SDS011;64866;48.066;20.976;2022-11-02T16:59:33;54.25;;;25.35;;
76123;SDS011;64866;48.066;20.976;2022-11-02T17:02:37;45.37;;;21.23;;
76123;SDS011;64866;48.066;20.976;2022-11-02T17:05:42;33.08;;;16.83;;
76123;SDS011;64866;48.066;20.976;2022-11-02T17:08:51;77.35;;;36.45;;
76123;SDS011;64866;48.066;20.976;2022-11-02T17:12:12;229.45;;;110.20;;
76123;SDS011;64866;48.066;20.976;2022-11-02T17:18:27;96.93;;;46.85;;
76123;SDS011;64866;48.066;20.976;2022-11-02T17:21:30;182.85;;;68.38;;
76123;SDS011;64866;48.066;20.976;2022-11-02T17:24:32;121.73;;;46.57;;
76123;SDS011;64866;48.066;20.976;2022-11-02T17:27:37;86.38;;;39.33;;
76123;SDS011;64866;48.066;20.976;2022-11-02T17:30:44;57.95;;;27.88;;
76123;SDS011;64866;48.066;20.976;2022-11-02T17:33:47;58.67;;;29.03;;
76123;SDS011;64866;48.066;20.976;2022-11-02T17:36:50;90.80;;;37.10;;
76123;SDS011;64866;48.066;20.976;2022-11-02T17:39:53;66.18;;;28.10;;
76123;SDS011;64866;48.066;20.976;2022-11-02T17:42:56;69.20;;;32.25;;
76123;SDS011;64866;48.066;20.976;2022-11-02T17:45:59;210.68;;;90.97;;
76123;SDS011;64866;48.066;20.976;2022-11-02T17:49:02;106.88;;;49.33;;
76123;SDS011;64866;48.066;20.976;2022-11-02T17:52:05;48.72;;;22.73;;
76123;SDS011;64866;48.066;20.976;2022-11-02T17:55:08;39.07;;;20.83;;
76123;SDS011;64866;48.066;20.976;2022-11-02T17:58:15;54.40;;;28.40;;
76123;SDS011;64866;48.066;20.976;2022-11-02T18:01:18;64.75;;;31.52;;
76123;SDS011;64866;48.066;20.976;2022-11-02T18:04:21;46.47;;;23.10;;
76123;SDS011;64866;48.066;20.976;2022-11-02T18:07:24;41.92;;;22.20;;
76123;SDS011;64866;48.066;20.976;2022-11-02T18:10:31;37.55;;;19.20;;
76123;SDS011;64866;48.066;20.976;2022-11-02T18:13:43;36.05;;;17.63;;
76123;SDS011;64866;48.066;20.976;2022-11-02T18:16:46;37.78;;;17.25;;
76123;SDS011;64866;48.066;20.976;2022-11-02T18:19:49;32.13;;;16.52;;
76123;SDS011;64866;48.066;20.976;2022-11-02T18:22:55;41.70;;;19.13;;
76123;SDS011;64866;48.066;20.976;2022-11-02T18:25:58;41.00;;;21.07;;
76123;SDS011;64866;48.066;20.976;2022-11-02T18:29:02;42.88;;;20.33;;
76123;SDS011;64866;48.066;20.976;2022-11-02T18:32:05;41.28;;;19.95;;
76123;SDS011;64866;48.066;20.976;2022-11-02T18:35:09;40.33;;;20.47;;
76123;SDS011;64866;48.066;20.976;2022-11-02T18:38:14;43.83;;;20.27;;
76123;SDS011;64866;48.066;20.976;2022-11-02T18:41:16;42.58;;;20.63;;
76123;SDS011;64866;48.066;20.976;2022-11-02T18:44:36;91.18;;;39.25;;
76123;SDS011;64866;48.066;20.976;2022-11-02T18:47:38;107.63;;;47.85;;
76123;SDS011;64866;48.066;20.976;2022-11-02T18:50:42;52.13;;;25.65;;
76123;SDS011;64866;48.066;20.976;2022-11-02T18:53:50;65.78;;;30.10;;
76123;SDS011;64866;48.066;20.976;2022-11-02T18:56:57;75.60;;;44.33;;
76123;SDS011;64866;48.066;20.976;2022-11-02T19:00:00;67.90;;;35.42;;
76123;SDS011;64866;48.066;20.976;2022-11-02T19:03:04;67.45;;;36.50;;
76123;SDS011;64866;48.066;20.976;2022-11-02T19:06:07;89.87;;;42.13;;
76123;SDS011;64866;48.066;20.976;2022-11-02T19:09:29;77.13;;;41.35;;
76123;SDS011;64866;48.066;20.976;2022-11-02T19:12:35;62.40;;;32.20;;
76123;SDS011;64866;48.066;20.976;2022-11-02T19:15:38;54.55;;;29.50;;
76123;SDS011;64866;48.066;20.976;2022-11-02T19:18:44;48.88;;;25.27;;
76123;SDS011;64866;48.066;20.976;2022-11-02T19:21:46;51.40;;;27.92;;
76123;SDS011;64866;48.066;20.976;2022-11-02T19:24:49;44.45;;;23.80;;
76123;SDS011;64866;48.066;20.976;2022-11-02T19:27:54;49.27;;;25.07;;
76123;SDS011;64866;48.066;20.976;2022-11-02T19:30:56;52.50;;;25.02;;
76123;SDS011;64866;48.066;20.976;2022-11-02T19:33:59;53.85;;;27.00;;
76123;SDS011;64866;48.066;20.976;2022-11-02T19:37:02;83.37;;;37.97;;
76123;SDS011;64866;48.066;20.976;2022-11-02T19:40:06;54.92;;;28.25;;
76123;SDS011;64866;48.066;20.976;2022-11-02T19:43:09;39.05;;;20.33;;
76123;SDS011;64866;48.066;20.976;2022-11-02T19:46:13;43.70;;;23.55;;
76123;SDS011;64866;48.066;20.976;2022-11-02T19:49:17;43.53;;;21.10;;
76123;SDS011;64866;48.066;20.976;2022-11-02T19:52:20;44.67;;;21.40;;
76123;SDS011;64866;48.066;20.976;2022-11-02T19:55:25;47.85;;;24.40;;
76123;SDS011;64866;48.066;20.976;2022-11-02T19:58:30;53.47;;;27.57;;
76123;SDS011;64866;48.066;20.976;2022-11-02T20:01:34;54.85;;;29.38;;
76123;SDS011;64866;48.066;20.976;2022-11-02T20:04:39;57.95;;;31.27;;
76123;SDS011;64866;48.066;20.976;2022-11-02T20:07:43;65.03;;;33.70;;
76123;SDS011;64866;48.066;20.976;2022-11-02T20:10:47;57.83;;;27.40;;
76123;SDS011;64866;48.066;20.976;2022-11-02T20:13:50;46.17;;;26.08;;
76123;SDS011;64866;48.066;20.976;2022-11-02T20:16:53;46.83;;;25.27;;
76123;SDS011;64866;48.066;20.976;2022-11-02T20:20:17;35.90;;;19.10;;
76123;SDS011;64866;48.066;20.976;2022-11-02T20:23:20;43.65;;;23.33;;
76123;SDS011;64866;48.066;20.976;2022-11-02T20:26:33;50.35;;;24.75;;
76123;SDS011;64866;48.066;20.976;2022-11-02T20:29:36;86.63;;;40.20;;
76123;SDS011;64866;48.066;20.976;2022-11-02T20:32:39;64.00;;;30.60;;
76123;SDS011;64866;48.066;20.976;2022-11-02T20:35:48;46.28;;;20.92;;
76123;SDS011;64866;48.066;20.976;2022-11-02T20:38:51;40.97;;;22.13;;
76123;SDS011;64866;48.066;20.976;2022-11-02T20:41:55;57.45;;;30.88;;
76123;SDS011;64866;48.066;20.976;2022-11-02T20:44:58;48.53;;;24.35;;
76123;SDS011;64866;48.066;20.976;2022-11-02T20:48:02;38.33;;;23.60;;
76123;SDS011;64866;48.066;20.976;2022-11-02T20:51:05;43.78;;;26.08;;
76123;SDS011;64866;48.066;20.976;2022-11-02T20:54:08;45.92;;;27.98;;
76123;SDS011;64866;48.066;20.976;2022-11-02T20:57:11;47.50;;;28.98;;
76123;SDS011;64866;48.066;20.976;2022-11-02T21:00:14;61.83;;;32.83;;
76123;SDS011;64866;48.066;20.976;2022-11-02T21:03:18;63.58;;;33.58;;
76123;SDS011;64866;48.066;20.976;2022-11-02T21:06:22;55.17;;;29.33;;
76123;SDS011;64866;48.066;20.976;2022-11-02T21:09:24;50.80;;;26.50;;
76123;SDS011;64866;48.066;20.976;2022-11-02T21:12:27;55.80;;;28.13;;
76123;SDS011;64866;48.066;20.976;2022-11-02T21:15:48;73.05;;;34.33;;
76123;SDS011;64866;48.066;20.976;2022-11-02T21:18:52;67.38;;;31.45;;
76123;SDS011;64866;48.066;20.976;2022-11-02T21:21:56;46.17;;;22.95;;
76123;SDS011;64866;48.066;20.976;2022-11-02T21:25:01;44.13;;;23.60;;
76123;SDS011;64866;48.066;20.976;2022-11-02T21:28:04;43.47;;;22.15;;
76123;SDS011;64866;48.066;20.976;2022-11-02T21:31:07;40.93;;;19.20;;
76123;SDS011;64866;48.066;20.976;2022-11-02T21:34:16;41.58;;;19.63;;
76123;SDS011;64866;48.066;20.976;2022-11-02T21:37:18;39.58;;;19.05;;
76123;SDS011;64866;48.066;20.976;2022-11-02T21:40:21;56.47;;;24.63;;
76123;SDS011;64866;48.066;20.976;2022-11-02T21:43:24;40.92;;;19.13;;
76123;SDS011;64866;48.066;20.976;2022-11-02T21:46:27;44.13;;;19.08;;
76123;SDS011;64866;48.066;20.976;2022-11-02T21:49:30;47.95;;;19.67;;
76123;SDS011;64866;48.066;20.976;2022-11-02T21:52:35;47.25;;;20.25;;
76123;SDS011;64866;48.066;20.976;2022-11-02T21:55:44;48.15;;;20.85;;
76123;SDS011;64866;48.066;20.976;2022-11-02T21:58:47;53.17;;;22.17;;
76123;SDS011;64866;48.066;20.976;2022-11-02T22:01:50;49.40;;;20.80;;
76123;SDS011;64866;48.066;20.976;2022-11-02T22:04:52;52.53;;;22.23;;
76123;SDS011;64866;48.066;20.976;2022-11-02T22:07:56;52.08;;;21.38;;
76123;SDS011;64866;48.066;20.976;2022-11-02T22:11:18;50.73;;;21.27;;
76123;SDS011;64866;48.066;20.976;2022-11-02T22:14:25;47.63;;;21.00;;
76123;SDS011;64866;48.066;20.976;2022-11-02T22:17:27;44.10;;;20.30;;
76123;SDS011;64866;48.066;20.976;2022-11-02T22:20:53;50.40;;;21.45;;
76123;SDS011;64866;48.066;20.976;2022-11-02T22:23:56;48.78;;;21.23;;
76123;SDS011;64866;48.066;20.976;2022-11-02T22:26:59;47.80;;;21.67;;
76123;SDS011;64866;48.066;20.976;2022-11-02T22:30:02;49.25;;;19.80;;
76123;SDS011;64866;48.066;20.976;2022-11-02T22:33:05;46.27;;;19.70;;
76123;SDS011;64866;48.066;20.976;2022-11-02T22:36:10;44.63;;;19.05;;
76123;SDS011;64866;48.066;20.976;2022-11-02T22:39:17;43.40;;;21.00;;
76123;SDS011;64866;48.066;20.976;2022-11-02T22:42:19;44.10;;;19.33;;
76123;SDS011;64866;48.066;20.976;2022-11-02T22:45:22;46.83;;;20.35;;
76123;SDS011;64866;48.066;20.976;2022-11-02T22:48:25;45.60;;;18.63;;
76123;SDS011;64866;48.066;20.976;2022-11-02T22:51:28;43.53;;;17.90;;
76123;SDS011;64866;48.066;20.976;2022-11-02T22:54:32;44.28;;;17.40;;
76123;SDS011;64866;48.066;20.976;2022-11-02T22:57:35;39.70;;;18.50;;
76123;SDS011;64866;48.066;20.976;2022-11-02T23:00:38;43.67;;;19.10;;
76123;SDS011;64866;48.066;20.976;2022-11-02T23:03:41;41.60;;;18.00;;
76123;SDS011;64866;48.066;20.976;2022-11-02T23:06:44;49.53;;;19.85;;
76123;SDS011;64866;48.066;20.976;2022-11-02T23:09:47;44.63;;;18.17;;
76123;SDS011;64866;48.066;20.976;2022-11-02T23:12:49;47.40;;;19.90;;
76123;SDS011;64866;48.066;20.976;2022-11-02T23:15:59;43.22;;;18.85;;
76123;SDS011;64866;48.066;20.976;2022-11-02T23:19:22;45.00;;;19.90;;
76123;SDS011;64866;48.066;20.976;2022-11-02T23:22:30;45.15;;;19.52;;
76123;SDS011;64866;48.066;20.976;2022-11-02T23:25:32;43.08;;;20.48;;
76123;SDS011;64866;48.066;20.976;2022-11-02T23:28:35;47.15;;;19.55;;
76123;SDS011;64866;48.066;20.976;2022-11-02T23:31:56;47.88;;;20.42;;
76123;SDS011;64866;48.066;20.976;2022-11-02T23:35:17;50.90;;;19.90;;
76123;SDS011;64866;48.066;20.976;2022-11-02T23:38:39;42.75;;;19.45;;
76123;SDS011;64866;48.066;20.976;2022-11-02T23:42:04;41.42;;;19.75;;
76123;SDS011;64866;48.066;20.976;2022-11-02T23:45:06;43.03;;;19.23;;
76123;SDS011;64866;48.066;20.976;2022-11-02T23:48:10;44.97;;;19.40;;
76123;SDS011;64866;48.066;20.976;2022-11-02T23:51:12;44.03;;;19.20;;
76123;SDS011;64866;48.066;20.976;2022-11-02T23:54:33;41.65;;;19.42;;
76123;SDS011;64866;48.066;20.976;2022-11-02T23:57:54;39.33;;;18.92;;
